EDT,Max TemperatureF,Mean TemperatureF,Min TemperatureF,Max Dew PointF,MeanDew PointF,Min DewpointF,Max Humidity, Mean Humidity, Min Humidity, Max Sea Level PressureIn, Mean Sea Level PressureIn, Min Sea Level PressureIn, Max VisibilityMiles, Mean VisibilityMiles, Min VisibilityMiles, Max Wind SpeedMPH, Mean Wind SpeedMPH, Max Gust SpeedMPH,PrecipitationIn, CloudCover, Events, WindDirDegrees
2013-10-1,80,67,53,58,55,53,93,68,42,30.10,30.05,30.01,10,10,10,10,3,14,0.00,0,,252
2013-10-2,81,71,60,61,58,57,90,68,45,30.10,30.06,30.03,10,10,10,10,5,14,0.00,0,,239
2013-10-3,82,71,60,67,62,57,97,70,43,30.12,30.09,30.07,10,10,9,10,5,14,0.00,1,,188
2013-10-4,89,79,68,65,63,59,84,62,40,30.11,30.07,30.03,10,10,10,14,7,18,0.00,1,,226
2013-10-5,87,77,66,67,64,62,93,69,45,30.10,30.07,30.03,10,10,7,10,6,17,0.00,0,,179
2013-10-6,88,78,68,68,66,60,93,68,42,30.08,30.03,29.99,10,10,6,17,9,22,0.00,2,,190
2013-10-7,88,76,63,72,68,62,100,75,50,30.00,29.92,29.84,10,9,1,29,13,35,0.68,6,Rain,187
2013-10-8,65,63,60,57,54,46,78,67,56,30.19,30.13,30.01,10,10,10,28,21,35,0.02,8,Rain,30
2013-10-9,65,63,60,63,60,55,100,87,73,30.17,30.09,29.98,10,5,1,37,24,46,2.28,8,Rain,30
2013-10-10,66,64,61,66,60,32,100,100,100,29.96,29.87,29.83,10,4,0,31,17,39,0.68,8,Fog-Rain,17
2013-10-11,68,64,59,64,61,32,100,97,93,29.91,29.86,29.82,10,4,0,14,5,22,0.15,8,Fog-Rain,296
2013-10-12,73,69,65,68,66,64,100,92,84,30.06,29.95,29.89,10,5,1,14,6,18,0.26,8,Rain,33
2013-10-13,72,69,66,68,65,62,100,92,84,30.21,30.12,30.05,10,6,0,28,14,33,0.05,8,Fog-Rain,32
2013-10-14,71,67,62,63,60,57,87,79,70,30.24,30.20,30.17,10,10,9,26,18,31,0.00,7,,32
2013-10-15,68,65,62,64,61,57,93,89,84,30.19,30.11,30.05,10,10,10,22,14,26,0.00,7,,26
2013-10-16,70,67,63,64,62,60,93,83,73,30.04,30.00,29.96,10,10,9,14,6,17,0.00,5,,34
2013-10-17,79,70,60,64,61,59,97,77,56,29.95,29.89,29.83,10,10,9,15,7,18,0.00,4,,205
2013-10-18,71,64,57,64,53,47,84,66,48,30.03,29.96,29.84,10,10,10,16,6,21,0.00,3,,345
2013-10-19,68,63,58,65,60,53,93,83,72,29.99,29.90,29.82,10,10,9,13,6,18,0.01,7,Rain,182
2013-10-20,65,56,47,63,46,35,87,63,39,30.13,30.02,29.86,10,10,10,18,7,28,0.00,1,,353
2013-10-21,68,56,44,50,45,42,93,68,42,30.17,30.10,30.02,10,10,10,12,3,15,0.00,0,,167
2013-10-22,67,60,52,57,52,47,93,78,62,29.99,29.89,29.81,10,10,8,13,6,15,0.00,2,,223
2013-10-23,60,56,51,58,51,38,93,74,55,29.92,29.73,29.66,10,8,5,17,7,29,T,5,,276
2013-10-24,57,52,46,39,34,28,71,53,35,30.15,30.06,29.94,10,10,10,16,5,23,0.00,3,,289
2013-10-25,56,48,39,36,31,28,70,53,35,30.33,30.25,30.14,10,10,10,16,5,23,0.00,0,,323
2013-10-26,63,50,37,43,34,29,92,61,29,30.32,30.19,30.04,10,10,10,22,9,26,0.00,0,,221
2013-10-27,66,56,46,43,37,31,80,57,34,30.15,30.07,30.01,10,10,10,16,5,18,0.00,2,,228
2013-10-28,67,56,44,50,47,42,93,73,52,30.27,30.21,30.15,10,10,8,14,5,17,0.00,0,,206
2013-10-29,66,58,50,55,51,44,96,72,48,30.34,30.31,30.25,10,9,5,13,3,15,T,3,Rain,21
2013-10-30,74,64,53,57,54,50,100,77,53,30.31,30.25,30.18,10,9,7,13,5,20,0.00,4,,194
2013-10-31,77,67,56,64,58,54,87,67,46,30.21,30.10,29.95,10,10,10,20,12,28,0.00,1,,195